Time;durP1;ratioP1;P1;durP2;ratioP2;P2;SDS_P1;SDS_P2;PMS_P1;PMS_P2;Temp;Humidity;BMP_temperature;BMP_pressure;BME280_temperature;BME280_humidity;BME280_pressure;Samples;Min_cycle;Max_cycle;Signal;HPM_P1;HPM_P2
2022/08/31 00:04:49;;;;;;;1.13;0.30;;;14.40;99.90;;;;;;5033504;28;20064;-29
2022/08/31 00:07:15;;;;;;;2.38;0.20;;;14.30;99.90;;;;;;5033839;28;20045;-28
2022/08/31 00:09:45;;;;;;;3.22;0.60;;;14.30;99.90;;;;;;5033752;28;20045;-28
2022/08/31 00:12:11;;;;;;;1.58;0.40;;;14.30;99.90;;;;;;5047344;28;20496;-29
2022/08/31 00:14:37;;;;;;;1.67;0.40;;;14.30;99.90;;;;;;5033959;28;20128;-29
2022/08/31 00:17:03;;;;;;;1.50;0.40;;;14.20;99.90;;;;;;5033909;28;20081;-29
2022/08/31 00:19:29;;;;;;;0.40;0.30;;;14.20;99.90;;;;;;5048514;28;20053;-28
2022/08/31 00:21:54;;;;;;;1.52;0.30;;;14.20;99.90;;;;;;5033929;28;20052;-28
2022/08/31 00:24:20;;;;;;;2.85;0.60;;;14.20;99.90;;;;;;5033420;28;20041;-28
2022/08/31 00:26:49;;;;;;;1.00;0.20;;;14.20;99.90;;;;;;5031485;28;20077;-28
2022/08/31 00:29:14;;;;;;;2.75;0.43;;;14.20;99.90;;;;;;5047287;28;20068;-28
2022/08/31 00:31:40;;;;;;;1.48;0.50;;;14.20;99.90;;;;;;5015715;28;20499;-28
2022/08/31 00:34:06;;;;;;;0.68;0.30;;;14.20;99.90;;;;;;5047343;28;20056;-28
2022/08/31 00:36:32;;;;;;;2.47;0.60;;;14.10;99.90;;;;;;5032962;28;20472;-29
2022/08/31 00:38:58;;;;;;;2.38;0.30;;;14.10;99.90;;;;;;5033779;28;20053;-28
2022/08/31 00:41:27;;;;;;;1.50;0.28;;;14.00;99.90;;;;;;5032371;28;20045;-28
2022/08/31 00:43:55;;;;;;;1.85;0.30;;;14.00;99.90;;;;;;5036727;28;20037;-29
2022/08/31 00:46:34;;;;;;;6.00;0.40;;;14.00;99.90;;;;;;5029914;28;20128;-28
2022/08/31 00:49:19;;;;;;;0.30;0.20;;;13.90;99.90;;;;;;5046451;28;20057;-28
2022/08/31 00:51:54;;;;;;;1.20;0.30;;;13.80;99.90;;;;;;5032102;28;20480;-28
2022/08/31 00:54:34;;;;;;;0.82;0.30;;;13.70;99.90;;;;;;5031556;28;20539;-28
2022/08/31 00:57:06;;;;;;;1.35;0.28;;;13.60;99.90;;;;;;5032441;28;20506;-28
2022/08/31 00:59:32;;;;;;;1.38;0.60;;;13.60;99.90;;;;;;5027097;28;20050;-28
2022/08/31 01:01:58;;;;;;;0.90;0.40;;;13.50;99.90;;;;;;5024453;28;20045;-28
2022/08/31 01:04:24;;;;;;;1.33;0.40;;;13.40;99.90;;;;;;5031905;28;20045;-28
2022/08/31 01:06:50;;;;;;;3.40;0.50;;;13.40;99.90;;;;;;5032458;28;20452;-28
2022/08/31 01:09:24;;;;;;;1.85;0.30;;;13.40;99.90;;;;;;5031276;28;20439;-28
2022/08/31 01:11:49;;;;;;;0.50;0.22;;;13.30;99.90;;;;;;5032900;28;20057;-28
2022/08/31 01:14:15;;;;;;;1.63;0.32;;;13.30;99.90;;;;;;5048148;28;20034;-28
2022/08/31 01:16:47;;;;;;;0.90;0.30;;;13.20;99.90;;;;;;5032043;28;20264;-28
2022/08/31 01:19:23;;;;;;;2.53;0.50;;;13.30;99.90;;;;;;5032556;28;20049;-28
2022/08/31 01:22:09;;;;;;;5.65;0.50;;;13.20;99.90;;;;;;5032976;28;20041;-28
2022/08/31 01:24:37;;;;;;;1.83;0.40;;;13.20;1.00;;;;;;5032802;28;20053;-28
2022/08/31 01:27:06;;;;;;;0.47;0.20;;;13.20;1.00;;;;;;5031640;28;20049;-27
2022/08/31 01:29:37;;;;;;;0.73;0.20;;;13.20;99.90;;;;;;5031600;28;20053;-27
2022/08/31 01:32:05;;;;;;;1.20;0.20;;;13.20;1.00;;;;;;5027948;28;20041;-27
2022/08/31 01:34:32;;;;;;;2.08;0.20;;;13.20;1.00;;;;;;5033070;28;20480;-27
2022/08/31 01:36:58;;;;;;;4.07;0.30;;;13.20;1.00;;;;;;5032364;28;20050;-27
2022/08/31 01:39:24;;;;;;;0.75;0.28;;;13.20;99.90;;;;;;5033395;28;20076;-27
2022/08/31 01:41:50;;;;;;;1.45;0.32;;;13.20;99.90;;;;;;5032635;28;20495;-27
2022/08/31 01:44:22;;;;;;;2.30;0.40;;;13.10;99.90;;;;;;5035920;28;20050;-27
2022/08/31 01:46:48;;;;;;;0.73;0.17;;;13.20;99.90;;;;;;5035376;28;20052;-27
2022/08/31 01:49:15;;;;;;;5.07;0.40;;;13.10;99.90;;;;;;5051665;28;20053;-28
2022/08/31 01:51:42;;;;;;;3.88;0.40;;;13.00;99.90;;;;;;5034759;28;20107;-27
2022/08/31 01:54:08;;;;;;;0.50;0.22;;;13.00;99.90;;;;;;5047802;28;20045;-27
2022/08/31 01:56:40;;;;;;;1.00;0.30;;;12.90;99.90;;;;;;5035373;28;20476;-27
2022/08/31 01:59:07;;;;;;;0.40;0.20;;;12.90;1.00;;;;;;5034710;28;20144;-27
2022/08/31 02:01:37;;;;;;;3.67;0.45;;;12.70;1.00;;;;;;5034270;28;20046;-27
2022/08/31 02:04:05;;;;;;;1.58;0.40;;;12.60;1.00;;;;;;5034808;28;20057;-27
2022/08/31 02:06:34;;;;;;;2.22;0.40;;;12.60;1.00;;;;;;5033898;28;20532;-28
2022/08/31 02:09:02;;;;;;;1.08;0.40;;;12.50;1.00;;;;;;5035526;28;20493;-27
2022/08/31 02:11:28;;;;;;;1.25;0.35;;;12.40;1.00;;;;;;5050678;28;20050;-27
2022/08/31 02:13:53;;;;;;;1.08;0.60;;;12.40;1.00;;;;;;5052193;28;20364;-27
2022/08/31 02:16:19;;;;;;;1.88;0.47;;;12.30;1.00;;;;;;5034896;28;20118;-27
2022/08/31 02:18:45;;;;;;;1.77;0.43;;;12.20;1.00;;;;;;5050683;28;20049;-27
2022/08/31 02:21:12;;;;;;;1.40;0.45;;;12.20;1.00;;;;;;5034339;28;20048;-27
2022/08/31 02:23:40;;;;;;;0.98;0.30;;;12.10;1.00;;;;;;5032867;28;20042;-27
2022/08/31 02:26:06;;;;;;;1.35;0.60;;;12.00;1.00;;;;;;5036494;28;20114;-28
2022/08/31 02:28:32;;;;;;;1.08;0.55;;;12.00;1.00;;;;;;5034430;28;20045;-28
2022/08/31 02:30:58;;;;;;;0.93;0.50;;;11.90;34.40;;;;;;5035106;28;20514;-27
2022/08/31 02:33:26;;;;;;;0.98;0.60;;;11.80;71.50;;;;;;5034696;28;20042;-27
2022/08/31 02:35:52;;;;;;;1.00;0.50;;;11.80;97.40;;;;;;5035245;28;20072;-27
2022/08/31 02:38:18;;;;;;;0.90;0.40;;;11.80;99.90;;;;;;5050571;28;20045;-27
2022/08/31 02:40:44;;;;;;;1.13;0.30;;;11.80;99.90;;;;;;5036090;28;20053;-28
2022/08/31 02:43:11;;;;;;;1.35;0.38;;;11.70;99.90;;;;;;5034602;28;20056;-27
2022/08/31 02:45:37;;;;;;;0.88;0.38;;;11.70;99.90;;;;;;5035553;28;20123;-27
2022/08/31 02:48:08;;;;;;;1.80;0.45;;;11.70;99.90;;;;;;5036082;28;20068;-27
2022/08/31 02:50:41;;;;;;;1.33;0.57;;;11.70;99.90;;;;;;5033890;28;20061;-27
2022/08/31 02:53:08;;;;;;;1.17;0.60;;;11.70;99.90;;;;;;5036160;28;20127;-27
2022/08/31 02:55:36;;;;;;;1.10;0.45;;;11.60;99.90;;;;;;5033115;28;20050;-27
2022/08/31 02:58:03;;;;;;;1.27;0.40;;;11.60;99.90;;;;;;5034274;28;20041;-27
2022/08/31 03:00:29;;;;;;;4.57;0.50;;;11.60;99.90;;;;;;5016830;28;20056;-27
2022/08/31 03:02:57;;;;;;;1.92;0.45;;;11.60;99.90;;;;;;5015496;28;20057;-27
2022/08/31 03:05:24;;;;;;;0.93;0.43;;;11.50;99.90;;;;;;5031153;28;20492;-27
2022/08/31 03:07:50;;;;;;;2.15;0.95;;;11.50;99.90;;;;;;5034613;28;20033;-27
2022/08/31 03:10:19;;;;;;;1.23;0.60;;;11.50;99.90;;;;;;5034647;28;20045;-28
2022/08/31 03:12:47;;;;;;;0.68;0.30;;;11.50;99.90;;;;;;5035009;28;20052;-27
2022/08/31 03:15:13;;;;;;;0.80;0.30;;;11.50;99.90;;;;;;5032877;28;20045;-27
2022/08/31 03:17:39;;;;;;;1.98;0.60;;;11.60;99.90;;;;;;5034900;28;20045;-27
2022/08/31 03:20:06;;;;;;;1.27;0.30;;;11.60;99.90;;;;;;5034296;28;20103;-26
2022/08/31 03:22:33;;;;;;;1.55;0.60;;;11.50;99.90;;;;;;5048022;28;20053;-27
2022/08/31 03:24:58;;;;;;;1.20;0.70;;;11.50;99.90;;;;;;5033058;28;20128;-27
2022/08/31 03:27:25;;;;;;;2.22;0.73;;;11.50;99.90;;;;;;5032648;28;20073;-27
2022/08/31 03:29:54;;;;;;;1.40;0.63;;;11.50;99.90;;;;;;5046977;28;20518;-28
2022/08/31 03:32:22;;;;;;;1.42;0.50;;;11.40;99.90;;;;;;5032210;28;20529;-27
2022/08/31 03:35:00;;;;;;;0.75;0.40;;;11.40;99.90;;;;;;5033136;28;20414;-27
2022/08/31 03:37:26;;;;;;;1.30;0.70;;;11.40;99.90;;;;;;5033115;28;20403;-27
2022/08/31 03:39:52;;;;;;;1.10;0.70;;;11.30;99.90;;;;;;5034439;28;20566;-27
2022/08/31 03:42:21;;;;;;;1.63;0.40;;;11.20;99.90;;;;;;5033823;28;20124;-27
2022/08/31 03:44:47;;;;;;;2.78;0.50;;;11.20;99.90;;;;;;5034482;28;20049;-28
2022/08/31 03:47:13;;;;;;;1.83;0.70;;;11.10;99.90;;;;;;5033439;28;20042;-27
2022/08/31 03:49:39;;;;;;;2.75;0.73;;;11.10;99.90;;;;;;5034432;28;20399;-27
2022/08/31 03:52:05;;;;;;;0.73;0.60;;;11.00;99.90;;;;;;5034184;28;20136;-27
2022/08/31 03:54:34;;;;;;;3.50;0.93;;;11.00;1.00;;;;;;5032737;28;20049;-27
2022/08/31 03:57:07;;;;;;;1.13;0.65;;;10.90;1.00;;;;;;5031311;28;20071;-27
2022/08/31 03:59:33;;;;;;;;;;;10.90;1.00;;;;;;5032446;28;20510;-27
2022/08/31 04:01:59;;;;;;;1.50;0.70;;;10.90;1.00;;;;;;5033595;28;19921;-27
2022/08/31 04:04:25;;;;;;;1.90;0.65;;;10.90;1.00;;;;;;5032867;28;20180;-27
2022/08/31 04:06:50;;;;;;;1.17;0.80;;;10.80;1.00;;;;;;5034089;28;20045;-27
2022/08/31 04:09:16;;;;;;;0.93;0.70;;;10.80;1.00;;;;;;5032979;28;20045;-27
2022/08/31 04:11:44;;;;;;;1.00;0.80;;;10.90;1.00;;;;;;5033263;28;20056;-26
2022/08/31 04:14:13;;;;;;;6.60;1.02;;;10.90;1.00;;;;;;5028770;28;20041;-27
2022/08/31 04:16:39;;;;;;;4.05;0.95;;;10.90;1.00;;;;;;5033859;28;20042;-26
2022/08/31 04:19:05;;;;;;;2.10;1.10;;;10.80;1.00;;;;;;5033306;28;20414;-27
2022/08/31 04:21:32;;;;;;;3.00;1.00;;;10.80;1.00;;;;;;5034703;28;20148;-27
2022/08/31 04:23:59;;;;;;;1.23;0.80;;;10.80;1.00;;;;;;5033485;28;20037;-27
2022/08/31 04:26:29;;;;;;;3.42;1.30;;;10.70;27.40;;;;;;5031296;28;20087;-27
2022/08/31 04:28:55;;;;;;;1.40;0.88;;;10.80;88.20;;;;;;5034594;28;20100;-27
2022/08/31 04:31:27;;;;;;;3.20;0.90;;;10.80;99.90;;;;;;5032348;28;20053;-27
2022/08/31 04:33:55;;;;;;;1.50;0.90;;;10.70;99.90;;;;;;5032719;28;20049;-27
2022/08/31 04:36:27;;;;;;;1.73;1.05;;;10.70;99.90;;;;;;5031492;28;20507;-27
2022/08/31 04:38:56;;;;;;;4.38;1.02;;;10.70;99.90;;;;;;5034509;28;20049;-27
2022/08/31 04:41:30;;;;;;;3.28;1.08;;;10.60;99.90;;;;;;5032994;28;20048;-27
2022/08/31 04:43:57;;;;;;;2.42;1.38;;;10.70;99.90;;;;;;5032511;28;20076;-27
2022/08/31 04:46:24;;;;;;;4.18;1.15;;;10.70;99.90;;;;;;5032422;28;20045;-27
2022/08/31 04:48:50;;;;;;;3.20;1.08;;;10.70;99.90;;;;;;5032865;28;20488;-27
2022/08/31 04:51:27;;;;;;;2.08;1.30;;;10.70;99.90;;;;;;5032500;28;20044;-27
2022/08/31 04:53:53;;;;;;;1.98;1.45;;;10.70;99.90;;;;;;5032063;28;20049;-27
2022/08/31 04:56:23;;;;;;;1.98;1.27;;;10.60;99.90;;;;;;5031227;28;20101;-27
2022/08/31 04:58:55;;;;;;;3.47;1.60;;;10.70;99.90;;;;;;5032562;28;20042;-27
2022/08/31 05:01:23;;;;;;;2.77;1.20;;;10.80;99.90;;;;;;5032896;28;20042;-27
2022/08/31 05:03:52;;;;;;;1.90;1.40;;;10.80;99.90;;;;;;5030813;28;20041;-27
2022/08/31 05:06:21;;;;;;;1.48;1.25;;;10.70;99.90;;;;;;5032555;28;20053;-27
2022/08/31 05:08:47;;;;;;;1.48;1.23;;;10.80;99.90;;;;;;5031270;28;20124;-27
2022/08/31 05:11:16;;;;;;;2.28;1.30;;;10.80;99.90;;;;;;5032224;28;20139;-27
2022/08/31 05:13:42;;;;;;;2.60;1.40;;;10.90;1.00;;;;;;5032592;28;20387;-27
2022/08/31 05:16:09;;;;;;;3.17;1.50;;;11.10;1.00;;;;;;5032798;28;20042;-27
2022/08/31 05:18:40;;;;;;;4.43;1.55;;;11.10;1.00;;;;;;5030969;28;20120;-27
2022/08/31 05:21:24;;;;;;;3.67;1.50;;;11.10;1.00;;;;;;5033253;28;20042;-27
2022/08/31 05:23:50;;;;;;;1.50;1.40;;;11.20;1.00;;;;;;5037707;28;20060;-27
2022/08/31 05:26:21;;;;;;;1.95;1.33;;;11.40;1.00;;;;;;5036400;28;20053;-27
2022/08/31 05:28:48;;;;;;;1.88;1.50;;;11.30;1.00;;;;;;5035578;28;20057;-27
2022/08/31 05:31:14;;;;;;;2.75;1.50;;;11.30;1.00;;;;;;5034944;28;20487;-27
2022/08/31 05:33:41;;;;;;;1.55;1.20;;;11.50;1.00;;;;;;5034114;28;20052;-27
2022/08/31 05:36:07;;;;;;;1.27;1.10;;;11.60;1.00;;;;;;5001350;28;20062;-27
2022/08/31 05:38:33;;;;;;;2.58;1.00;;;11.70;1.00;;;;;;5018498;28;20129;-27
2022/08/31 05:40:59;;;;;;;1.55;1.15;;;11.80;7.80;;;;;;5036703;28;20046;-27
2022/08/31 05:43:26;;;;;;;2.60;1.05;;;11.90;27.00;;;;;;5035839;28;20038;-27
2022/08/31 05:45:53;;;;;;;2.80;1.17;;;12.00;70.20;;;;;;5035994;28;20052;-28
2022/08/31 05:48:20;;;;;;;1.73;1.23;;;12.10;98.10;;;;;;5036940;28;20045;-27
2022/08/31 05:50:45;;;;;;;1.80;1.35;;;12.30;84.60;;;;;;5034579;28;20056;-27
2022/08/31 05:53:11;;;;;;;3.50;1.15;;;12.30;69.10;;;;;;5036581;28;20391;-27
2022/08/31 05:55:37;;;;;;;5.13;1.02;;;12.60;93.60;;;;;;5035796;28;20045;-27
2022/08/31 05:58:03;;;;;;;3.78;1.58;;;12.60;28.20;;;;;;5036948;28;20049;-28
2022/08/31 06:00:30;;;;;;;1.77;1.00;;;12.80;1.00;;;;;;5034745;28;20055;-27
2022/08/31 06:02:57;;;;;;;2.88;1.05;;;12.80;1.00;;;;;;5034705;28;20056;-27
2022/08/31 06:05:23;;;;;;;2.28;1.17;;;12.90;1.00;;;;;;5034776;28;20045;-27
2022/08/31 06:07:49;;;;;;;4.43;1.20;;;12.90;1.00;;;;;;5036184;28;20486;-27
2022/08/31 06:10:17;;;;;;;1.90;1.30;;;13.10;1.00;;;;;;5033252;28;20052;-28
2022/08/31 06:12:45;;;;;;;1.85;0.90;;;13.20;1.00;;;;;;5036121;28;20049;-27
2022/08/31 06:15:11;;;;;;;4.18;1.25;;;13.20;1.00;;;;;;5034346;28;20565;-27
2022/08/31 06:17:37;;;;;;;1.83;0.70;;;13.40;99.90;;;;;;5033565;28;20233;-27
2022/08/31 06:20:05;;;;;;;2.60;0.88;;;13.40;99.90;;;;;;5036117;28;20052;-27
2022/08/31 06:22:36;;;;;;;3.83;0.90;;;13.50;99.90;;;;;;5034929;28;20095;-27
2022/08/31 06:25:05;;;;;;;1.35;0.90;;;13.60;99.90;;;;;;5033558;28;20049;-27
2022/08/31 06:27:32;;;;;;;0.90;0.80;;;13.80;99.90;;;;;;5034393;28;20053;-27
2022/08/31 06:30:00;;;;;;;3.42;0.75;;;13.80;99.90;;;;;;5034853;28;20057;-28
2022/08/31 06:32:29;;;;;;;3.17;0.68;;;13.90;99.90;;;;;;5033506;28;20120;-27
2022/08/31 06:34:54;;;;;;;2.47;0.80;;;14.00;99.90;;;;;;5033829;28;20060;-27
2022/08/31 06:37:20;;;;;;;0.80;0.60;;;14.20;99.90;;;;;;5036236;28;20050;-27
2022/08/31 06:39:46;;;;;;;1.77;0.77;;;14.30;55.30;;;;;;5034619;28;20114;-29
2022/08/31 06:42:12;;;;;;;1.45;0.60;;;14.40;1.00;;;;;;5035070;28;20452;-27
2022/08/31 06:44:37;;;;;;;1.25;0.50;;;14.50;1.00;;;;;;5035550;28;20049;-27
2022/08/31 06:47:03;;;;;;;2.95;1.10;;;14.60;1.00;;;;;;5035935;28;20480;-27
2022/08/31 06:49:29;;;;;;;0.98;0.55;;;14.80;1.00;;;;;;5049763;28;20052;-27
2022/08/31 06:51:59;;;;;;;2.67;0.52;;;14.90;99.90;;;;;;5034084;28;20041;-27
2022/08/31 06:54:29;;;;;;;1.55;0.40;;;15.10;99.90;;;;;;5048618;28;20077;-28
2022/08/31 06:57:04;;;;;;;1.30;0.30;;;15.10;99.90;;;;;;5041839;28;20533;-27
2022/08/31 06:59:32;;;;;;;0.98;0.52;;;15.30;99.90;;;;;;5047014;28;20049;-27
2022/08/31 07:01:59;;;;;;;1.10;0.50;;;15.40;99.90;;;;;;5040801;28;20506;-27
2022/08/31 07:04:25;;;;;;;1.73;0.40;;;15.50;99.90;;;;;;5038855;28;20380;-28
2022/08/31 07:06:51;;;;;;;3.55;0.47;;;15.60;99.90;;;;;;5023002;28;20394;-28
2022/08/31 07:09:17;;;;;;;0.85;0.50;;;15.70;99.90;;;;;;5035082;28;20124;-28
2022/08/31 07:11:50;;;;;;;1.10;0.70;;;15.80;99.90;;;;;;5035136;28;20041;-28
2022/08/31 07:14:20;;;;;;;1.05;0.30;;;15.90;99.90;;;;;;5033683;28;20053;-27
2022/08/31 07:16:46;;;;;;;1.33;0.60;;;16.10;78.70;;;;;;5034996;28;20526;-28
2022/08/31 07:19:13;;;;;;;2.55;0.60;;;16.20;1.00;;;;;;5034994;28;20049;-28
2022/08/31 07:21:45;;;;;;;3.40;0.55;;;16.20;1.00;;;;;;5033026;28;20053;-27
2022/08/31 07:24:12;;;;;;;1.67;0.50;;;16.30;1.00;;;;;;5034788;28;20057;-27
2022/08/31 07:26:45;;;;;;;0.90;0.38;;;16.40;1.00;;;;;;5034841;28;20045;-27
2022/08/31 07:29:13;;;;;;;2.67;0.93;;;16.50;1.00;;;;;;5034579;28;20368;-27
2022/08/31 07:31:43;;;;;;;0.80;0.40;;;16.60;1.00;;;;;;5035108;28;20049;-27
2022/08/31 07:34:15;;;;;;;1.98;0.35;;;16.80;1.00;;;;;;5035455;28;20045;-27
2022/08/31 07:42:16;;;;;;;3.05;0.43;;;17.00;99.90;;;;;;5035448;28;20385;-27
2022/08/31 07:44:41;;;;;;;1.70;0.38;;;17.10;99.90;;;;;;5032641;28;20052;-28
2022/08/31 07:47:11;;;;;;;2.40;0.65;;;17.10;99.90;;;;;;5034473;28;20117;-27
2022/08/31 07:49:46;;;;;;;1.70;0.63;;;17.20;99.90;;;;;;5033249;28;20045;-27
2022/08/31 07:52:15;;;;;;;2.67;1.48;;;17.30;99.90;;;;;;5034413;28;20051;-27
2022/08/31 07:54:43;;;;;;;0.65;0.47;;;17.30;99.60;;;;;;5032238;28;20108;-27
2022/08/31 07:57:09;;;;;;;1.73;0.50;;;17.40;83.00;;;;;;5033194;28;20484;-27
2022/08/31 07:59:38;;;;;;;0.40;0.20;;;17.50;79.10;;;;;;5034294;28;20084;-27
2022/08/31 08:02:05;;;;;;;1.17;0.85;;;17.60;1.00;;;;;;5034992;28;20045;-27
2022/08/31 08:04:37;;;;;;;2.00;0.30;;;17.70;1.00;;;;;;5033607;28;20057;-27
2022/08/31 08:07:04;;;;;;;0.60;0.30;;;17.70;1.00;;;;;;5032922;28;20056;-28
2022/08/31 08:09:31;;;;;;;2.35;0.30;;;17.80;1.00;;;;;;5034106;28;20045;-27
2022/08/31 08:12:05;;;;;;;1.05;0.20;;;17.80;1.00;;;;;;5034034;28;20510;-27
2022/08/31 08:14:33;;;;;;;0.80;0.20;;;17.90;1.00;;;;;;5033393;28;20053;-27
2022/08/31 08:17:04;;;;;;;1.48;0.20;;;17.90;1.00;;;;;;5032808;28;20045;-27
2022/08/31 08:19:32;;;;;;;1.52;0.25;;;18.00;1.00;;;;;;5034265;28;20049;-28
2022/08/31 08:21:58;;;;;;;1.05;0.28;;;18.10;1.00;;;;;;5033889;28;20049;-27
2022/08/31 08:24:27;;;;;;;2.22;0.50;;;18.10;1.00;;;;;;5033838;28;20059;-27
2022/08/31 08:26:53;;;;;;;1.20;0.32;;;18.20;1.00;;;;;;5031644;28;20396;-27
2022/08/31 08:29:19;;;;;;;1.48;0.30;;;18.30;1.00;;;;;;5033814;28;20051;-27
2022/08/31 08:31:51;;;;;;;1.42;0.70;;;18.40;1.00;;;;;;5032854;28;20163;-27
2022/08/31 08:34:28;;;;;;;1.73;1.00;;;18.50;1.00;;;;;;5048068;28;20069;-27
2022/08/31 08:36:54;;;;;;;1.80;0.63;;;18.50;1.00;;;;;;5034097;28;20121;-27
2022/08/31 08:39:19;;;;;;;1.92;0.40;;;18.70;1.00;;;;;;5033672;28;20124;-27
2022/08/31 08:41:53;;;;;;;1.67;0.52;;;18.70;1.00;;;;;;5033727;28;20046;-27
2022/08/31 08:44:31;;;;;;;1.58;0.45;;;18.80;1.00;;;;;;5036052;28;20091;-28
2022/08/31 08:47:00;;;;;;;2.60;0.50;;;18.90;99.90;;;;;;5033354;28;20575;-28
2022/08/31 08:49:49;;;;;;;1.15;0.32;;;19.00;99.90;;;;;;5033850;28;20050;-27
2022/08/31 08:52:40;;;;;;;1.33;0.40;;;19.10;99.90;;;;;;5033845;28;20056;-27
2022/08/31 08:55:24;;;;;;;1.45;0.32;;;19.20;99.90;;;;;;5012617;28;20073;-27
2022/08/31 08:57:52;;;;;;;0.90;0.40;;;19.30;99.90;;;;;;5017838;28;20161;-28
2022/08/31 09:00:20;;;;;;;1.17;0.40;;;19.40;99.90;;;;;;5017833;28;20050;-27
2022/08/31 09:02:59;;;;;;;2.47;0.40;;;19.50;99.90;;;;;;5017800;28;20060;-27
2022/08/31 09:05:59;;;;;;;2.28;0.50;;;19.70;99.90;;;;;;5028336;28;20080;-28
2022/08/31 09:08:38;;;;;;;2.25;0.45;;;20.00;1.00;;;;;;5037481;28;20042;-27
2022/08/31 09:11:53;;;;;;;4.88;0.88;;;20.80;1.00;;;;;;5037422;28;20045;-28
2022/08/31 09:14:37;;;;;;;1.23;0.47;;;22.10;99.90;;;;;;5037385;28;20395;-27
2022/08/31 09:17:23;;;;;;;1.27;0.28;;;23.00;99.90;;;;;;5051940;28;20092;-27
2022/08/31 09:20:04;;;;;;;1.90;0.40;;;23.60;99.90;;;;;;5037270;28;20124;-27
2022/08/31 09:22:45;;;;;;;1.77;0.50;;;24.20;99.90;;;;;;5036360;28;20049;-29
2022/08/31 09:25:35;;;;;;;2.35;0.30;;;24.40;99.90;;;;;;5036260;28;20053;-28
2022/08/31 09:28:13;;;;;;;1.08;0.30;;;24.70;99.90;;;;;;5036096;28;20061;-27
2022/08/31 09:30:42;;;;;;;1.20;0.40;;;25.10;99.90;;;;;;5037781;28;20041;-28
2022/08/31 09:33:31;;;;;;;2.70;0.25;;;25.30;99.90;;;;;;5055928;28;20051;-28
2022/08/31 09:36:32;;;;;;;2.22;0.43;;;25.60;99.90;;;;;;5037932;28;20060;-28
2022/08/31 09:39:13;;;;;;;3.55;1.08;;;25.60;99.90;;;;;;5042481;28;20045;-28
2022/08/31 09:41:40;;;;;;;1.30;0.30;;;26.00;99.90;;;;;;5046798;28;20511;-29
2022/08/31 09:44:33;;;;;;;2.50;0.30;;;26.10;99.90;;;;;;5015783;28;20081;-29
2022/08/31 09:47:26;;;;;;;0.70;0.30;;;26.30;99.90;;;;;;5023349;28;20184;-28
2022/08/31 09:49:56;;;;;;;1.50;0.20;;;26.30;99.90;;;;;;5053472;28;20057;-28
2022/08/31 09:55:27;;;;;;;0.73;0.20;;;26.20;99.90;;;;;;5036555;28;20056;-28
2022/08/31 09:57:56;;;;;;;0.75;0.25;;;26.10;99.90;;;;;;5036743;28;20041;-29
2022/08/31 10:00:43;;;;;;;4.15;0.40;;;26.00;99.90;;;;;;5056429;28;20502;-28
2022/08/31 10:03:22;;;;;;;1.10;0.50;;;25.80;99.90;;;;;;5054442;28;20052;-28
2022/08/31 10:05:50;;;;;;;0.50;0.20;;;25.50;99.90;;;;;;5056937;28;20041;-28
2022/08/31 10:08:56;;;;;;;2.95;0.30;;;25.10;99.90;;;;;;5041464;28;20045;-28
2022/08/31 10:11:31;;;;;;;1.13;0.30;;;25.20;99.90;;;;;;5037173;28;20415;-28
2022/08/31 10:14:06;;;;;;;1.35;1.10;;;25.60;99.90;;;;;;5034269;28;20496;-28
2022/08/31 10:16:48;;;;;;;0.52;0.30;;;25.90;99.90;;;;;;5040091;28;20079;-28
2022/08/31 10:19:19;;;;;;;0.40;0.17;;;26.30;99.90;;;;;;5036108;28;20037;-28
2022/08/31 10:21:51;;;;;;;1.95;0.28;;;26.60;99.90;;;;;;5036793;28;20068;-28
2022/08/31 10:24:33;;;;;;;0.55;0.10;;;27.30;99.90;;;;;;5019040;28;20053;-28
2022/08/31 10:27:16;;;;;;;1.05;0.30;;;27.80;99.90;;;;;;5036047;28;20088;-28
2022/08/31 10:29:55;;;;;;;1.13;0.40;;;27.60;99.90;;;;;;5035971;28;20055;-28
2022/08/31 10:32:40;;;;;;;1.13;0.30;;;27.50;99.90;;;;;;5035371;28;20060;-28
2022/08/31 10:35:16;;;;;;;5.60;0.40;;;27.30;99.90;;;;;;5036021;28;20080;-28
2022/08/31 10:38:22;;;;;;;0.80;0.30;;;27.20;99.90;;;;;;5034870;28;20137;-29
2022/08/31 10:40:54;;;;;;;1.90;0.30;;;26.10;99.90;;;;;;5035702;28;20519;-28
2022/08/31 10:43:30;;;;;;;0.30;0.25;;;24.90;99.90;;;;;;5033918;28;20047;-28
2022/08/31 10:45:56;;;;;;;1.30;0.28;;;24.50;99.90;;;;;;5035002;28;20504;-28
2022/08/31 10:48:27;;;;;;;2.33;0.30;;;24.90;99.90;;;;;;5034437;28;20081;-28
2022/08/31 10:51:21;;;;;;;1.60;0.20;;;25.40;99.90;;;;;;5035948;28;20124;-28
2022/08/31 10:53:56;;;;;;;0.75;0.22;;;25.60;99.90;;;;;;5034559;28;20046;-29
2022/08/31 10:56:34;;;;;;;1.73;0.20;;;26.10;99.90;;;;;;5036107;28;20081;-28
2022/08/31 11:00:01;;;;;;;0.93;0.20;;;26.50;99.90;;;;;;5034091;28;20099;-28
2022/08/31 11:02:49;;;;;;;1.67;0.68;;;27.20;99.90;;;;;;4989198;28;20566;-29
2022/08/31 11:05:32;;;;;;;0.73;0.30;;;27.10;99.90;;;;;;4993656;28;20047;-28
2022/08/31 11:08:01;;;;;;;1.98;0.20;;;26.70;99.90;;;;;;5030296;28;20073;-28
2022/08/31 11:10:45;;;;;;;1.77;0.32;;;26.40;99.90;;;;;;5035188;28;20053;-28
2022/08/31 11:13:55;;;;;;;0.47;0.20;;;26.70;99.90;;;;;;5034260;28;20045;-28
2022/08/31 11:17:05;;;;;;;1.33;0.60;;;26.90;99.90;;;;;;5024059;28;20053;-28
2022/08/31 11:19:43;;;;;;;1.45;0.10;;;26.90;99.90;;;;;;5034076;28;20530;-28
2022/08/31 11:22:35;;;;;;;1.00;0.20;;;27.00;99.90;;;;;;5034993;28;20056;-28
2022/08/31 11:25:19;;;;;;;1.00;0.40;;;26.60;99.90;;;;;;5034963;28;20057;-28
2022/08/31 11:28:01;;;;;;;1.58;0.60;;;25.70;99.90;;;;;;5035437;28;20464;-29
2022/08/31 11:30:31;;;;;;;0.93;0.20;;;25.70;99.90;;;;;;5035419;28;20049;-29
2022/08/31 11:33:01;;;;;;;0.93;0.30;;;25.90;99.90;;;;;;5035569;28;20053;-29
2022/08/31 11:36:04;;;;;;;0.90;0.30;;;25.90;99.90;;;;;;5032770;28;20053;-28
2022/08/31 11:38:53;;;;;;;1.10;0.40;;;26.40;99.90;;;;;;5034876;28;20431;-29
2022/08/31 11:41:32;;;;;;;1.45;0.20;;;26.80;99.90;;;;;;5034500;28;20053;-29
2022/08/31 11:44:00;;;;;;;2.78;0.75;;;27.00;99.90;;;;;;5038697;28;20083;-28
2022/08/31 11:46:25;;;;;;;2.97;0.10;;;27.00;99.90;;;;;;5032871;28;20046;-28
2022/08/31 11:48:54;;;;;;;1.17;0.30;;;27.00;99.90;;;;;;5034444;28;20373;-28
2022/08/31 11:51:55;;;;;;;0.65;0.30;;;26.90;99.90;;;;;;5034471;28;20049;-28
2022/08/31 11:54:25;;;;;;;1.95;0.43;;;27.40;99.90;;;;;;5032731;28;20419;-28
2022/08/31 11:56:58;;;;;;;1.80;0.10;;;27.40;99.90;;;;;;5034561;28;20454;-28
2022/08/31 11:59:28;;;;;;;1.35;0.68;;;27.60;99.90;;;;;;5032598;28;20038;-28
2022/08/31 12:01:57;;;;;;;1.58;0.30;;;27.40;99.90;;;;;;5034244;28;20499;-29
2022/08/31 12:04:46;;;;;;;0.40;0.20;;;27.10;99.90;;;;;;5032702;28;20123;-29
2022/08/31 12:07:38;;;;;;;1.00;0.32;;;27.20;99.90;;;;;;5032828;28;20061;-27
2022/08/31 12:10:13;;;;;;;0.60;0.30;;;27.30;99.90;;;;;;5041285;28;20106;-27
2022/08/31 12:13:00;;;;;;;2.15;0.30;;;27.50;99.90;;;;;;5036683;28;20063;-28
2022/08/31 12:15:32;;;;;;;1.27;0.40;;;27.70;99.90;;;;;;5046062;28;20048;-28
2022/08/31 12:18:29;;;;;;;1.88;0.25;;;27.70;99.90;;;;;;5041182;28;20029;-29
2022/08/31 12:24:21;;;;;;;2.78;0.60;;;26.70;99.90;;;;;;5031589;28;20407;-28
2022/08/31 12:27:14;;;;;;;2.13;0.70;;;26.80;99.90;;;;;;5040217;28;20369;-28
2022/08/31 12:29:45;;;;;;;4.45;0.50;;;26.70;99.90;;;;;;5037571;28;20075;-27
2022/08/31 12:32:17;;;;;;;2.90;0.77;;;26.90;99.90;;;;;;5054831;28;20037;-28
2022/08/31 12:35:02;;;;;;;1.13;0.22;;;27.20;99.90;;;;;;5044744;28;20519;-28
2022/08/31 12:37:30;;;;;;;0.65;0.20;;;27.40;99.90;;;;;;5038057;28;20077;-28
2022/08/31 12:40:11;;;;;;;1.67;0.73;;;27.60;99.90;;;;;;5038360;28;20077;-27
2022/08/31 12:42:53;;;;;;;2.55;0.85;;;28.10;99.90;;;;;;5023064;28;20037;-27
2022/08/31 12:45:28;;;;;;;2.97;1.15;;;28.10;99.90;;;;;;5023624;28;20514;-29
2022/08/31 12:48:24;;;;;;;2.28;0.57;;;28.10;99.90;;;;;;5038588;28;20052;-28
2022/08/31 12:51:14;;;;;;;1.63;0.50;;;27.90;99.90;;;;;;5035139;28;20045;-27
2022/08/31 12:53:59;;;;;;;1.55;0.50;;;27.80;99.90;;;;;;5033586;28;20052;-27
2022/08/31 12:56:38;;;;;;;1.27;0.40;;;27.50;99.90;;;;;;5032616;28;20057;-27
2022/08/31 12:59:16;;;;;;;4.32;0.60;;;27.60;99.90;;;;;;5031627;28;20462;-28
2022/08/31 13:01:48;;;;;;;3.13;1.02;;;27.10;99.90;;;;;;5032480;28;20050;-27
2022/08/31 13:04:16;;;;;;;0.57;0.35;;;26.50;99.90;;;;;;5034163;28;20052;-27
2022/08/31 13:06:46;;;;;;;1.80;0.55;;;25.70;99.90;;;;;;5033413;28;20507;-27
2022/08/31 13:09:35;;;;;;;1.65;0.50;;;25.40;99.90;;;;;;5032490;28;20072;-27
2022/08/31 13:12:01;;;;;;;1.98;0.35;;;25.60;99.90;;;;;;5019821;28;20056;-27
2022/08/31 13:14:40;;;;;;;2.70;0.73;;;25.80;99.90;;;;;;5049274;28;20049;-27
2022/08/31 13:17:16;;;;;;;0.95;0.38;;;25.90;99.90;;;;;;5032576;28;20046;-27
2022/08/31 13:19:53;;;;;;;1.17;0.30;;;25.90;99.90;;;;;;5033256;28;20084;-27
2022/08/31 13:22:35;;;;;;;1.88;0.30;;;25.80;99.90;;;;;;5034345;28;20045;-27
2022/08/31 13:25:58;;;;;;;2.38;0.30;;;26.00;99.90;;;;;;5032943;28;20447;-27
2022/08/31 13:28:24;;;;;;;4.03;2.20;;;26.30;99.90;;;;;;5028370;28;20053;-27
2022/08/31 13:31:07;;;;;;;4.22;0.40;;;26.70;99.90;;;;;;5034690;28;20183;-27
2022/08/31 13:33:38;;;;;;;2.33;0.20;;;26.60;99.90;;;;;;5026447;28;20495;-28